Barrington Hills, Illinois
Current Conditions -  °F | °C
As of 10:04 AM on Wednesday 22 Oct 2014 (Local Time) from KPWK Reporting Station
Broken Clouds Broken Clouds  
Wind Chill: 51°   Ceiling: 2500
Heat Index: 51°   Visibility: 9mi
Dew Point: 40°   Wind: 5mph
Humidity: 66%   Direction: 70°ENE
Pressure: 30.37"   Gusts: NA
Location:  42.1928°N, 88.2237°W
Report Text: KPWK 221504Z 07004KT 9SM BKN025 11/04 A3037 RMK AO2 T01060044
Loading
Personal Weather Stations






























Interactive Weather Map
Tropical Storm Tracking
New forecast layout! Learn more

10-Day Weather Forecast

Advertisements
Track Severe Weather on mobile